sensor_id;sensor_type;location;lat;lon;timestamp;P1;durP1;ratioP1;P2;durP2;ratioP2
25525;SDS011;13424;48.424;11.258;2023-09-07T00:01:32;11.65;;;6.85;;
25525;SDS011;13424;48.424;11.258;2023-09-07T00:03:58;9.55;;;6.50;;
25525;SDS011;13424;48.424;11.258;2023-09-07T00:06:24;8.35;;;6.75;;
25525;SDS011;13424;48.424;11.258;2023-09-07T00:08:51;9.55;;;6.20;;
25525;SDS011;13424;48.424;11.258;2023-09-07T00:11:17;10.48;;;7.25;;
25525;SDS011;13424;48.424;11.258;2023-09-07T00:13:43;7.47;;;6.10;;
25525;SDS011;13424;48.424;11.258;2023-09-07T00:16:09;7.35;;;6.65;;
25525;SDS011;13424;48.424;11.258;2023-09-07T00:18:36;7.00;;;6.30;;
25525;SDS011;13424;48.424;11.258;2023-09-07T00:21:02;9.80;;;6.30;;
25525;SDS011;13424;48.424;11.258;2023-09-07T00:23:29;11.13;;;7.05;;
25525;SDS011;13424;48.424;11.258;2023-09-07T00:25:55;8.60;;;6.60;;
25525;SDS011;13424;48.424;11.258;2023-09-07T00:28:22;7.72;;;5.97;;
25525;SDS011;13424;48.424;11.258;2023-09-07T00:30:48;9.73;;;6.95;;
25525;SDS011;13424;48.424;11.258;2023-09-07T00:33:14;7.53;;;6.45;;
25525;SDS011;13424;48.424;11.258;2023-09-07T00:35:39;8.48;;;6.55;;
25525;SDS011;13424;48.424;11.258;2023-09-07T00:38:05;8.63;;;6.57;;
25525;SDS011;13424;48.424;11.258;2023-09-07T00:40:31;8.75;;;6.25;;
25525;SDS011;13424;48.424;11.258;2023-09-07T00:46:46;9.27;;;6.38;;
25525;SDS011;13424;48.424;11.258;2023-09-07T00:49:12;8.63;;;6.63;;
25525;SDS011;13424;48.424;11.258;2023-09-07T00:51:39;7.95;;;6.45;;
25525;SDS011;13424;48.424;11.258;2023-09-07T00:54:05;7.28;;;6.57;;
25525;SDS011;13424;48.424;11.258;2023-09-07T00:56:31;7.32;;;6.63;;
25525;SDS011;13424;48.424;11.258;2023-09-07T00:58:58;6.30;;;5.70;;
25525;SDS011;13424;48.424;11.258;2023-09-07T01:01:25;7.85;;;6.30;;
25525;SDS011;13424;48.424;11.258;2023-09-07T01:03:52;7.00;;;6.30;;
25525;SDS011;13424;48.424;11.258;2023-09-07T01:06:32;9.35;;;6.43;;
25525;SDS011;13424;48.424;11.258;2023-09-07T01:09:10;6.97;;;5.95;;
25525;SDS011;13424;48.424;11.258;2023-09-07T01:11:42;10.25;;;6.72;;
25525;SDS011;13424;48.424;11.258;2023-09-07T01:14:09;7.40;;;6.65;;
25525;SDS011;13424;48.424;11.258;2023-09-07T01:16:35;7.55;;;6.75;;
25525;SDS011;13424;48.424;11.258;2023-09-07T01:19:06;10.38;;;7.45;;
25525;SDS011;13424;48.424;11.258;2023-09-07T01:21:36;12.23;;;6.97;;
25525;SDS011;13424;48.424;11.258;2023-09-07T01:24:10;7.60;;;6.90;;
25525;SDS011;13424;48.424;11.258;2023-09-07T01:26:38;7.72;;;6.93;;
25525;SDS011;13424;48.424;11.258;2023-09-07T01:29:08;9.48;;;7.40;;
25525;SDS011;13424;48.424;11.258;2023-09-07T01:31:37;11.77;;;8.03;;
25525;SDS011;13424;48.424;11.258;2023-09-07T01:34:07;8.73;;;6.70;;
25525;SDS011;13424;48.424;11.258;2023-09-07T01:36:34;12.88;;;7.55;;
25525;SDS011;13424;48.424;11.258;2023-09-07T01:39:02;8.35;;;7.50;;
25525;SDS011;13424;48.424;11.258;2023-09-07T01:41:31;9.25;;;6.60;;
25525;SDS011;13424;48.424;11.258;2023-09-07T01:43:59;9.30;;;7.25;;
25525;SDS011;13424;48.424;11.258;2023-09-07T01:46:25;15.50;;;7.82;;
25525;SDS011;13424;48.424;11.258;2023-09-07T01:48:51;8.02;;;6.75;;
25525;SDS011;13424;48.424;11.258;2023-09-07T01:51:17;7.57;;;6.38;;
25525;SDS011;13424;48.424;11.258;2023-09-07T01:53:43;9.02;;;7.47;;
25525;SDS011;13424;48.424;11.258;2023-09-07T01:56:12;8.02;;;7.22;;
25525;SDS011;13424;48.424;11.258;2023-09-07T01:58:38;10.00;;;7.82;;
25525;SDS011;13424;48.424;11.258;2023-09-07T02:01:06;12.35;;;7.45;;
25525;SDS011;13424;48.424;11.258;2023-09-07T02:03:32;8.70;;;7.90;;
25525;SDS011;13424;48.424;11.258;2023-09-07T02:05:58;9.68;;;7.05;;
25525;SDS011;13424;48.424;11.258;2023-09-07T02:08:23;8.07;;;7.38;;
25525;SDS011;13424;48.424;11.258;2023-09-07T02:10:49;7.68;;;6.97;;
25525;SDS011;13424;48.424;11.258;2023-09-07T02:13:15;11.02;;;7.45;;
25525;SDS011;13424;48.424;11.258;2023-09-07T02:15:41;8.52;;;7.63;;
25525;SDS011;13424;48.424;11.258;2023-09-07T02:18:07;8.23;;;7.43;;
25525;SDS011;13424;48.424;11.258;2023-09-07T02:20:33;9.98;;;7.97;;
25525;SDS011;13424;48.424;11.258;2023-09-07T02:22:59;8.07;;;7.28;;
25525;SDS011;13424;48.424;11.258;2023-09-07T02:25:26;10.00;;;7.65;;
25525;SDS011;13424;48.424;11.258;2023-09-07T02:27:53;11.48;;;7.22;;
25525;SDS011;13424;48.424;11.258;2023-09-07T02:30:19;8.18;;;7.10;;
25525;SDS011;13424;48.424;11.258;2023-09-07T02:32:45;10.10;;;7.80;;
25525;SDS011;13424;48.424;11.258;2023-09-07T02:35:11;14.18;;;7.47;;
25525;SDS011;13424;48.424;11.258;2023-09-07T02:37:38;12.48;;;6.90;;
25525;SDS011;13424;48.424;11.258;2023-09-07T02:40:06;8.23;;;7.28;;
25525;SDS011;13424;48.424;11.258;2023-09-07T02:42:36;10.55;;;8.00;;
25525;SDS011;13424;48.424;11.258;2023-09-07T02:45:02;9.65;;;7.65;;
25525;SDS011;13424;48.424;11.258;2023-09-07T02:47:28;8.93;;;7.75;;
25525;SDS011;13424;48.424;11.258;2023-09-07T02:49:54;9.88;;;7.88;;
25525;SDS011;13424;48.424;11.258;2023-09-07T02:52:20;9.13;;;8.18;;
25525;SDS011;13424;48.424;11.258;2023-09-07T02:54:47;10.88;;;7.13;;
25525;SDS011;13424;48.424;11.258;2023-09-07T02:57:13;9.43;;;8.43;;
25525;SDS011;13424;48.424;11.258;2023-09-07T02:59:40;10.63;;;7.68;;
25525;SDS011;13424;48.424;11.258;2023-09-07T03:02:06;8.52;;;7.63;;
25525;SDS011;13424;48.424;11.258;2023-09-07T03:04:32;10.55;;;8.55;;
25525;SDS011;13424;48.424;11.258;2023-09-07T03:07:00;9.52;;;7.82;;
25525;SDS011;13424;48.424;11.258;2023-09-07T03:09:27;9.20;;;8.30;;
25525;SDS011;13424;48.424;11.258;2023-09-07T03:11:53;10.23;;;7.90;;
25525;SDS011;13424;48.424;11.258;2023-09-07T03:14:19;8.70;;;7.72;;
25525;SDS011;13424;48.424;11.258;2023-09-07T03:16:46;9.70;;;7.47;;
25525;SDS011;13424;48.424;11.258;2023-09-07T03:19:15;10.45;;;7.93;;
25525;SDS011;13424;48.424;11.258;2023-09-07T03:21:41;11.85;;;7.93;;
25525;SDS011;13424;48.424;11.258;2023-09-07T03:27:52;10.55;;;7.82;;
25525;SDS011;13424;48.424;11.258;2023-09-07T03:33:57;11.13;;;8.02;;
25525;SDS011;13424;48.424;11.258;2023-09-07T03:36:23;8.20;;;7.47;;
25525;SDS011;13424;48.424;11.258;2023-09-07T03:38:49;11.07;;;8.32;;
25525;SDS011;13424;48.424;11.258;2023-09-07T03:41:15;9.68;;;8.18;;
25525;SDS011;13424;48.424;11.258;2023-09-07T03:43:41;8.60;;;7.70;;
25525;SDS011;13424;48.424;11.258;2023-09-07T03:46:07;13.82;;;7.60;;
25525;SDS011;13424;48.424;11.258;2023-09-07T03:48:34;10.77;;;7.63;;
25525;SDS011;13424;48.424;11.258;2023-09-07T03:51:00;11.35;;;8.20;;
25525;SDS011;13424;48.424;11.258;2023-09-07T03:53:30;8.53;;;7.67;;
25525;SDS011;13424;48.424;11.258;2023-09-07T03:55:57;12.05;;;7.88;;
25525;SDS011;13424;48.424;11.258;2023-09-07T03:58:23;9.18;;;8.27;;
25525;SDS011;13424;48.424;11.258;2023-09-07T04:00:49;10.82;;;9.40;;
25525;SDS011;13424;48.424;11.258;2023-09-07T04:03:16;12.13;;;9.23;;
25525;SDS011;13424;48.424;11.258;2023-09-07T04:05:42;13.00;;;9.13;;
25525;SDS011;13424;48.424;11.258;2023-09-07T04:12:00;13.23;;;9.55;;
25525;SDS011;13424;48.424;11.258;2023-09-07T04:14:28;11.20;;;9.73;;
25525;SDS011;13424;48.424;11.258;2023-09-07T04:16:55;11.98;;;9.48;;
25525;SDS011;13424;48.424;11.258;2023-09-07T04:19:21;10.23;;;9.23;;
25525;SDS011;13424;48.424;11.258;2023-09-07T04:21:47;11.68;;;9.38;;
25525;SDS011;13424;48.424;11.258;2023-09-07T04:24:13;10.35;;;8.27;;
25525;SDS011;13424;48.424;11.258;2023-09-07T04:26:39;9.73;;;8.32;;
25525;SDS011;13424;48.424;11.258;2023-09-07T04:29:07;11.60;;;8.00;;
25525;SDS011;13424;48.424;11.258;2023-09-07T04:31:33;9.70;;;8.07;;
25525;SDS011;13424;48.424;11.258;2023-09-07T04:34:00;9.85;;;8.43;;
25525;SDS011;13424;48.424;11.258;2023-09-07T04:36:28;9.98;;;8.65;;
25525;SDS011;13424;48.424;11.258;2023-09-07T04:38:54;10.18;;;8.45;;
25525;SDS011;13424;48.424;11.258;2023-09-07T04:41:20;11.52;;;8.73;;
25525;SDS011;13424;48.424;11.258;2023-09-07T04:43:46;13.68;;;9.27;;
25525;SDS011;13424;48.424;11.258;2023-09-07T04:46:13;10.02;;;8.75;;
25525;SDS011;13424;48.424;11.258;2023-09-07T04:48:40;11.02;;;9.00;;
25525;SDS011;13424;48.424;11.258;2023-09-07T04:51:08;10.63;;;8.55;;
25525;SDS011;13424;48.424;11.258;2023-09-07T04:53:38;10.40;;;9.38;;
25525;SDS011;13424;48.424;11.258;2023-09-07T04:56:06;10.27;;;8.48;;
25525;SDS011;13424;48.424;11.258;2023-09-07T04:58:37;12.10;;;9.00;;
25525;SDS011;13424;48.424;11.258;2023-09-07T05:01:06;11.20;;;10.05;;
25525;SDS011;13424;48.424;11.258;2023-09-07T05:03:35;10.95;;;9.55;;
25525;SDS011;13424;48.424;11.258;2023-09-07T05:06:02;10.68;;;9.05;;
25525;SDS011;13424;48.424;11.258;2023-09-07T05:08:29;10.90;;;8.68;;
25525;SDS011;13424;48.424;11.258;2023-09-07T05:10:57;14.65;;;9.40;;
25525;SDS011;13424;48.424;11.258;2023-09-07T05:13:25;31.33;;;25.65;;
25525;SDS011;13424;48.424;11.258;2023-09-07T05:15:54;35.67;;;26.60;;
25525;SDS011;13424;48.424;11.258;2023-09-07T05:18:21;20.13;;;15.30;;
25525;SDS011;13424;48.424;11.258;2023-09-07T05:20:48;22.33;;;17.48;;
25525;SDS011;13424;48.424;11.258;2023-09-07T05:26:26;22.33;;;12.55;;
25525;SDS011;13424;48.424;11.258;2023-09-07T05:29:25;14.80;;;10.98;;
25525;SDS011;13424;48.424;11.258;2023-09-07T05:31:51;11.98;;;9.35;;
25525;SDS011;13424;48.424;11.258;2023-09-07T05:34:17;13.48;;;9.27;;
25525;SDS011;13424;48.424;11.258;2023-09-07T05:36:44;16.20;;;8.88;;
25525;SDS011;13424;48.424;11.258;2023-09-07T05:39:10;11.77;;;9.48;;
25525;SDS011;13424;48.424;11.258;2023-09-07T05:41:36;14.43;;;8.30;;
25525;SDS011;13424;48.424;11.258;2023-09-07T05:44:03;13.73;;;9.68;;
25525;SDS011;13424;48.424;11.258;2023-09-07T05:46:29;11.57;;;9.57;;
25525;SDS011;13424;48.424;11.258;2023-09-07T05:48:55;9.40;;;8.32;;
25525;SDS011;13424;48.424;11.258;2023-09-07T05:51:21;10.95;;;8.40;;
25525;SDS011;13424;48.424;11.258;2023-09-07T05:53:47;11.15;;;7.78;;
25525;SDS011;13424;48.424;11.258;2023-09-07T05:56:13;9.50;;;8.60;;
25525;SDS011;13424;48.424;11.258;2023-09-07T05:58:39;17.48;;;8.35;;
25525;SDS011;13424;48.424;11.258;2023-09-07T06:01:05;10.88;;;8.48;;
25525;SDS011;13424;48.424;11.258;2023-09-07T06:03:31;9.32;;;8.43;;
25525;SDS011;13424;48.424;11.258;2023-09-07T06:06:00;9.77;;;8.10;;
25525;SDS011;13424;48.424;11.258;2023-09-07T06:08:26;9.75;;;8.43;;
25525;SDS011;13424;48.424;11.258;2023-09-07T06:10:53;14.07;;;9.13;;
25525;SDS011;13424;48.424;11.258;2023-09-07T06:13:19;10.30;;;8.05;;
25525;SDS011;13424;48.424;11.258;2023-09-07T06:15:45;9.82;;;8.82;;
25525;SDS011;13424;48.424;11.258;2023-09-07T06:18:11;11.93;;;9.10;;
25525;SDS011;13424;48.424;11.258;2023-09-07T06:20:37;10.73;;;9.02;;
25525;SDS011;13424;48.424;11.258;2023-09-07T06:23:03;10.48;;;8.63;;
25525;SDS011;13424;48.424;11.258;2023-09-07T06:25:29;11.98;;;8.55;;
25525;SDS011;13424;48.424;11.258;2023-09-07T06:27:56;8.82;;;7.95;;
25525;SDS011;13424;48.424;11.258;2023-09-07T06:30:23;15.35;;;9.18;;
25525;SDS011;13424;48.424;11.258;2023-09-07T06:32:49;11.30;;;9.60;;
25525;SDS011;13424;48.424;11.258;2023-09-07T06:35:17;11.25;;;8.85;;
25525;SDS011;13424;48.424;11.258;2023-09-07T06:37:45;11.85;;;8.90;;
25525;SDS011;13424;48.424;11.258;2023-09-07T06:40:14;12.45;;;8.80;;
25525;SDS011;13424;48.424;11.258;2023-09-07T06:42:42;11.70;;;9.32;;
25525;SDS011;13424;48.424;11.258;2023-09-07T06:45:13;11.68;;;8.63;;
25525;SDS011;13424;48.424;11.258;2023-09-07T06:47:39;10.20;;;8.82;;
25525;SDS011;13424;48.424;11.258;2023-09-07T06:50:07;10.20;;;8.55;;
25525;SDS011;13424;48.424;11.258;2023-09-07T06:52:33;12.50;;;9.20;;
25525;SDS011;13424;48.424;11.258;2023-09-07T06:54:59;13.25;;;9.02;;
25525;SDS011;13424;48.424;11.258;2023-09-07T06:57:25;12.25;;;9.43;;
25525;SDS011;13424;48.424;11.258;2023-09-07T06:59:57;12.43;;;9.15;;
25525;SDS011;13424;48.424;11.258;2023-09-07T07:02:23;10.05;;;8.73;;
25525;SDS011;13424;48.424;11.258;2023-09-07T07:04:49;11.50;;;8.95;;
25525;SDS011;13424;48.424;11.258;2023-09-07T07:07:16;10.35;;;8.80;;
25525;SDS011;13424;48.424;11.258;2023-09-07T07:09:43;13.93;;;9.63;;
25525;SDS011;13424;48.424;11.258;2023-09-07T07:12:09;11.38;;;10.25;;
25525;SDS011;13424;48.424;11.258;2023-09-07T07:14:36;10.52;;;8.80;;
25525;SDS011;13424;48.424;11.258;2023-09-07T07:17:03;12.48;;;8.90;;
25525;SDS011;13424;48.424;11.258;2023-09-07T07:19:31;10.20;;;9.13;;
25525;SDS011;13424;48.424;11.258;2023-09-07T07:21:57;14.77;;;9.15;;
25525;SDS011;13424;48.424;11.258;2023-09-07T07:24:36;10.00;;;9.00;;
25525;SDS011;13424;48.424;11.258;2023-09-07T07:27:02;10.07;;;9.00;;
25525;SDS011;13424;48.424;11.258;2023-09-07T07:29:31;10.18;;;9.18;;
25525;SDS011;13424;48.424;11.258;2023-09-07T07:31:57;11.40;;;9.15;;
25525;SDS011;13424;48.424;11.258;2023-09-07T07:34:23;10.63;;;9.38;;
25525;SDS011;13424;48.424;11.258;2023-09-07T07:36:49;11.65;;;8.45;;
25525;SDS011;13424;48.424;11.258;2023-09-07T07:39:15;11.95;;;8.00;;
25525;SDS011;13424;48.424;11.258;2023-09-07T07:41:41;10.23;;;8.43;;
25525;SDS011;13424;48.424;11.258;2023-09-07T07:44:07;10.90;;;8.95;;
25525;SDS011;13424;48.424;11.258;2023-09-07T07:46:34;11.27;;;9.07;;
25525;SDS011;13424;48.424;11.258;2023-09-07T07:49:00;9.75;;;8.75;;
25525;SDS011;13424;48.424;11.258;2023-09-07T07:51:27;12.05;;;9.52;;
25525;SDS011;13424;48.424;11.258;2023-09-07T07:53:54;10.82;;;9.73;;
25525;SDS011;13424;48.424;11.258;2023-09-07T07:56:24;9.75;;;8.80;;
25525;SDS011;13424;48.424;11.258;2023-09-07T07:58:52;11.63;;;9.35;;
25525;SDS011;13424;48.424;11.258;2023-09-07T08:01:19;12.48;;;9.65;;
25525;SDS011;13424;48.424;11.258;2023-09-07T08:03:47;10.93;;;9.40;;
25525;SDS011;13424;48.424;11.258;2023-09-07T08:06:13;14.32;;;10.68;;
25525;SDS011;13424;48.424;11.258;2023-09-07T08:08:39;10.45;;;9.30;;
25525;SDS011;13424;48.424;11.258;2023-09-07T08:11:06;12.38;;;10.13;;
25525;SDS011;13424;48.424;11.258;2023-09-07T08:13:35;10.63;;;9.00;;
25525;SDS011;13424;48.424;11.258;2023-09-07T08:16:02;10.48;;;9.48;;
25525;SDS011;13424;48.424;11.258;2023-09-07T08:18:30;9.50;;;8.50;;
25525;SDS011;13424;48.424;11.258;2023-09-07T08:20:58;13.02;;;8.73;;
25525;SDS011;13424;48.424;11.258;2023-09-07T08:23:24;9.73;;;8.50;;
25525;SDS011;13424;48.424;11.258;2023-09-07T08:25:52;12.70;;;9.18;;
25525;SDS011;13424;48.424;11.258;2023-09-07T08:28:20;9.52;;;8.57;;
25525;SDS011;13424;48.424;11.258;2023-09-07T08:30:50;13.85;;;9.02;;
25525;SDS011;13424;48.424;11.258;2023-09-07T08:33:19;10.88;;;8.93;;
25525;SDS011;13424;48.424;11.258;2023-09-07T08:35:57;12.07;;;9.52;;
25525;SDS011;13424;48.424;11.258;2023-09-07T08:38:25;9.85;;;8.85;;
25525;SDS011;13424;48.424;11.258;2023-09-07T08:40:54;9.35;;;8.32;;
25525;SDS011;13424;48.424;11.258;2023-09-07T08:43:22;10.05;;;9.00;;
25525;SDS011;13424;48.424;11.258;2023-09-07T08:46:03;10.30;;;9.02;;
25525;SDS011;13424;48.424;11.258;2023-09-07T08:48:39;11.07;;;8.85;;
25525;SDS011;13424;48.424;11.258;2023-09-07T08:51:08;9.77;;;8.77;;
25525;SDS011;13424;48.424;11.258;2023-09-07T08:53:39;11.20;;;9.60;;
25525;SDS011;13424;48.424;11.258;2023-09-07T08:56:06;9.63;;;8.63;;
25525;SDS011;13424;48.424;11.258;2023-09-07T08:58:36;12.35;;;8.98;;
25525;SDS011;13424;48.424;11.258;2023-09-07T09:01:02;11.15;;;8.63;;
25525;SDS011;13424;48.424;11.258;2023-09-07T09:03:28;12.32;;;9.15;;
25525;SDS011;13424;48.424;11.258;2023-09-07T09:05:55;13.50;;;9.10;;
25525;SDS011;13424;48.424;11.258;2023-09-07T09:08:22;10.45;;;8.55;;
25525;SDS011;13424;48.424;11.258;2023-09-07T09:10:58;14.48;;;8.38;;
25525;SDS011;13424;48.424;11.258;2023-09-07T09:13:32;10.30;;;8.45;;
25525;SDS011;13424;48.424;11.258;2023-09-07T09:15:59;10.90;;;9.02;;
25525;SDS011;13424;48.424;11.258;2023-09-07T09:18:29;13.13;;;8.88;;
25525;SDS011;13424;48.424;11.258;2023-09-07T09:20:55;9.30;;;8.43;;
25525;SDS011;13424;48.424;11.258;2023-09-07T09:23:24;11.70;;;8.82;;
25525;SDS011;13424;48.424;11.258;2023-09-07T09:26:18;10.15;;;8.63;;
25525;SDS011;13424;48.424;11.258;2023-09-07T09:28:45;13.27;;;8.18;;
25525;SDS011;13424;48.424;11.258;2023-09-07T09:31:11;12.75;;;8.52;;
25525;SDS011;13424;48.424;11.258;2023-09-07T09:33:42;10.45;;;8.65;;
25525;SDS011;13424;48.424;11.258;2023-09-07T09:36:12;10.63;;;7.53;;
25525;SDS011;13424;48.424;11.258;2023-09-07T09:38:39;12.15;;;8.80;;
25525;SDS011;13424;48.424;11.258;2023-09-07T09:41:05;10.48;;;8.63;;
25525;SDS011;13424;48.424;11.258;2023-09-07T09:43:33;11.68;;;7.97;;
25525;SDS011;13424;48.424;11.258;2023-09-07T09:46:06;10.07;;;8.55;;
25525;SDS011;13424;48.424;11.258;2023-09-07T09:48:34;9.32;;;8.10;;
25525;SDS011;13424;48.424;11.258;2023-09-07T09:51:01;12.85;;;11.55;;
25525;SDS011;13424;48.424;11.258;2023-09-07T09:53:29;10.02;;;7.20;;
25525;SDS011;13424;48.424;11.258;2023-09-07T09:55:56;10.35;;;8.55;;
25525;SDS011;13424;48.424;11.258;2023-09-07T09:58:22;9.60;;;8.68;;
25525;SDS011;13424;48.424;11.258;2023-09-07T10:00:51;8.55;;;7.75;;
25525;SDS011;13424;48.424;11.258;2023-09-07T10:03:24;8.98;;;7.22;;
25525;SDS011;13424;48.424;11.258;2023-09-07T10:06:06;9.45;;;8.18;;
25525;SDS011;13424;48.424;11.258;2023-09-07T10:09:05;10.77;;;8.32;;
25525;SDS011;13424;48.424;11.258;2023-09-07T10:11:33;8.13;;;7.30;;
25525;SDS011;13424;48.424;11.258;2023-09-07T10:14:06;9.90;;;8.38;;
25525;SDS011;13424;48.424;11.258;2023-09-07T10:16:50;8.77;;;7.88;;
25525;SDS011;13424;48.424;11.258;2023-09-07T10:19:22;9.05;;;7.53;;
25525;SDS011;13424;48.424;11.258;2023-09-07T10:21:52;8.30;;;7.53;;
25525;SDS011;13424;48.424;11.258;2023-09-07T10:24:32;8.82;;;8.02;;
25525;SDS011;13424;48.424;11.258;2023-09-07T10:27:05;8.85;;;7.75;;
25525;SDS011;13424;48.424;11.258;2023-09-07T10:29:51;8.05;;;7.25;;
25525;SDS011;13424;48.424;11.258;2023-09-07T10:32:18;7.30;;;6.60;;
25525;SDS011;13424;48.424;11.258;2023-09-07T10:34:44;8.70;;;7.57;;
25525;SDS011;13424;48.424;11.258;2023-09-07T10:37:13;9.45;;;7.05;;
25525;SDS011;13424;48.424;11.258;2023-09-07T10:39:40;9.43;;;7.43;;
25525;SDS011;13424;48.424;11.258;2023-09-07T10:42:20;10.90;;;7.63;;
25525;SDS011;13424;48.424;11.258;2023-09-07T10:44:50;8.25;;;6.43;;
25525;SDS011;13424;48.424;11.258;2023-09-07T10:47:16;7.05;;;6.40;;
25525;SDS011;13424;48.424;11.258;2023-09-07T10:49:42;7.43;;;6.72;;
25525;SDS011;13424;48.424;11.258;2023-09-07T10:52:08;8.75;;;6.10;;
25525;SDS011;13424;48.424;11.258;2023-09-07T10:54:34;9.52;;;7.63;;
25525;SDS011;13424;48.424;11.258;2023-09-07T10:57:08;10.35;;;7.10;;
25525;SDS011;13424;48.424;11.258;2023-09-07T10:59:38;7.50;;;6.63;;
25525;SDS011;13424;48.424;11.258;2023-09-07T11:02:11;8.13;;;6.80;;
25525;SDS011;13424;48.424;11.258;2023-09-07T11:04:37;7.78;;;6.97;;
25525;SDS011;13424;48.424;11.258;2023-09-07T11:07:03;7.82;;;6.65;;
25525;SDS011;13424;48.424;11.258;2023-09-07T11:09:30;10.85;;;6.75;;
25525;SDS011;13424;48.424;11.258;2023-09-07T11:11:56;7.45;;;6.75;;
25525;SDS011;13424;48.424;11.258;2023-09-07T11:14:31;8.50;;;6.38;;
25525;SDS011;13424;48.424;11.258;2023-09-07T11:16:57;8.35;;;6.10;;
25525;SDS011;13424;48.424;11.258;2023-09-07T11:19:23;7.40;;;6.20;;
25525;SDS011;13424;48.424;11.258;2023-09-07T11:21:49;7.18;;;5.95;;
25525;SDS011;13424;48.424;11.258;2023-09-07T11:24:18;8.43;;;6.40;;
25525;SDS011;13424;48.424;11.258;2023-09-07T11:26:44;10.70;;;6.65;;
25525;SDS011;13424;48.424;11.258;2023-09-07T11:29:16;7.65;;;6.15;;
25525;SDS011;13424;48.424;11.258;2023-09-07T11:31:43;6.47;;;5.88;;
25525;SDS011;13424;48.424;11.258;2023-09-07T11:34:11;6.60;;;5.90;;
25525;SDS011;13424;48.424;11.258;2023-09-07T11:36:41;16.63;;;6.53;;
25525;SDS011;13424;48.424;11.258;2023-09-07T11:39:09;9.07;;;6.93;;
25525;SDS011;13424;48.424;11.258;2023-09-07T11:41:39;7.18;;;6.13;;
25525;SDS011;13424;48.424;11.258;2023-09-07T11:44:10;7.25;;;6.18;;
25525;SDS011;13424;48.424;11.258;2023-09-07T11:46:37;6.68;;;5.65;;
25525;SDS011;13424;48.424;11.258;2023-09-07T11:49:03;8.30;;;5.50;;
25525;SDS011;13424;48.424;11.258;2023-09-07T11:51:34;7.07;;;5.97;;
25525;SDS011;13424;48.424;11.258;2023-09-07T11:54:01;7.55;;;6.07;;
25525;SDS011;13424;48.424;11.258;2023-09-07T11:56:28;6.22;;;5.28;;
25525;SDS011;13424;48.424;11.258;2023-09-07T11:58:54;11.07;;;6.63;;
25525;SDS011;13424;48.424;11.258;2023-09-07T12:05:45;6.47;;;5.43;;
25525;SDS011;13424;48.424;11.258;2023-09-07T12:08:11;6.68;;;5.65;;
25525;SDS011;13424;48.424;11.258;2023-09-07T12:10:37;6.97;;;5.32;;
25525;SDS011;13424;48.424;11.258;2023-09-07T12:13:03;9.60;;;7.07;;
25525;SDS011;13424;48.424;11.258;2023-09-07T12:15:29;9.13;;;6.00;;
25525;SDS011;13424;48.424;11.258;2023-09-07T12:17:55;7.55;;;5.75;;
25525;SDS011;13424;48.424;11.258;2023-09-07T12:20:21;6.80;;;5.35;;
25525;SDS011;13424;48.424;11.258;2023-09-07T12:22:47;6.43;;;5.72;;
25525;SDS011;13424;48.424;11.258;2023-09-07T12:25:32;9.30;;;5.75;;
25525;SDS011;13424;48.424;11.258;2023-09-07T12:27:58;5.90;;;5.30;;
25525;SDS011;13424;48.424;11.258;2023-09-07T12:30:24;10.63;;;6.35;;
25525;SDS011;13424;48.424;11.258;2023-09-07T12:32:51;7.22;;;5.85;;
25525;SDS011;13424;48.424;11.258;2023-09-07T12:35:17;6.07;;;5.10;;
25525;SDS011;13424;48.424;11.258;2023-09-07T12:37:45;6.10;;;5.15;;
25525;SDS011;13424;48.424;11.258;2023-09-07T12:43:21;7.47;;;5.88;;
25525;SDS011;13424;48.424;11.258;2023-09-07T12:45:47;6.22;;;5.60;;
25525;SDS011;13424;48.424;11.258;2023-09-07T12:48:13;7.50;;;5.82;;
25525;SDS011;13424;48.424;11.258;2023-09-07T12:55:05;5.35;;;4.85;;
25525;SDS011;13424;48.424;11.258;2023-09-07T12:57:32;8.30;;;5.40;;
25525;SDS011;13424;48.424;11.258;2023-09-07T12:59:59;5.85;;;5.35;;
25525;SDS011;13424;48.424;11.258;2023-09-07T13:02:26;5.63;;;5.13;;
25525;SDS011;13424;48.424;11.258;2023-09-07T13:04:54;5.50;;;5.07;;
25525;SDS011;13424;48.424;11.258;2023-09-07T13:09:48;7.47;;;5.13;;
25525;SDS011;13424;48.424;11.258;2023-09-07T13:12:15;11.15;;;5.32;;
25525;SDS011;13424;48.424;11.258;2023-09-07T13:14:41;10.43;;;5.40;;
25525;SDS011;13424;48.424;11.258;2023-09-07T13:17:12;5.75;;;4.95;;
25525;SDS011;13424;48.424;11.258;2023-09-07T13:19:41;11.80;;;5.80;;
25525;SDS011;13424;48.424;11.258;2023-09-07T13:22:08;7.22;;;4.85;;
25525;SDS011;13424;48.424;11.258;2023-09-07T13:24:35;7.15;;;4.82;;
25525;SDS011;13424;48.424;11.258;2023-09-07T13:27:00;8.40;;;5.60;;
25525;SDS011;13424;48.424;11.258;2023-09-07T13:29:28;8.88;;;4.95;;
25525;SDS011;13424;48.424;11.258;2023-09-07T13:31:54;6.15;;;4.80;;
25525;SDS011;13424;48.424;11.258;2023-09-07T13:34:21;5.07;;;4.53;;
25525;SDS011;13424;48.424;11.258;2023-09-07T13:36:47;6.25;;;5.65;;
25525;SDS011;13424;48.424;11.258;2023-09-07T13:39:13;5.82;;;4.80;;
25525;SDS011;13424;48.424;11.258;2023-09-07T13:41:39;8.35;;;5.15;;
25525;SDS011;13424;48.424;11.258;2023-09-07T13:44:06;8.15;;;5.03;;
25525;SDS011;13424;48.424;11.258;2023-09-07T13:46:33;7.47;;;5.75;;
25525;SDS011;13424;48.424;11.258;2023-09-07T13:48:59;5.13;;;4.60;;
25525;SDS011;13424;48.424;11.258;2023-09-07T13:51:25;8.45;;;5.47;;
25525;SDS011;13424;48.424;11.258;2023-09-07T13:53:51;9.07;;;4.95;;
25525;SDS011;13424;48.424;11.258;2023-09-07T13:56:18;9.00;;;5.15;;
25525;SDS011;13424;48.424;11.258;2023-09-07T13:58:44;10.18;;;6.07;;
25525;SDS011;13424;48.424;11.258;2023-09-07T14:01:09;8.23;;;5.28;;
25525;SDS011;13424;48.424;11.258;2023-09-07T14:03:35;6.07;;;5.22;;
25525;SDS011;13424;48.424;11.258;2023-09-07T14:06:02;6.47;;;5.13;;
25525;SDS011;13424;48.424;11.258;2023-09-07T14:08:28;8.88;;;5.05;;
25525;SDS011;13424;48.424;11.258;2023-09-07T14:10:55;6.80;;;5.10;;
25525;SDS011;13424;48.424;11.258;2023-09-07T14:13:21;5.55;;;5.05;;
25525;SDS011;13424;48.424;11.258;2023-09-07T14:15:47;7.72;;;4.75;;
25525;SDS011;13424;48.424;11.258;2023-09-07T14:18:13;11.60;;;6.20;;
25525;SDS011;13424;48.424;11.258;2023-09-07T14:20:39;8.40;;;5.03;;
25525;SDS011;13424;48.424;11.258;2023-09-07T14:23:05;6.00;;;4.57;;
25525;SDS011;13424;48.424;11.258;2023-09-07T14:25:34;6.13;;;5.35;;
25525;SDS011;13424;48.424;11.258;2023-09-07T14:28:00;8.77;;;5.28;;
25525;SDS011;13424;48.424;11.258;2023-09-07T14:30:26;5.95;;;4.85;;
25525;SDS011;13424;48.424;11.258;2023-09-07T14:32:52;7.00;;;5.05;;
25525;SDS011;13424;48.424;11.258;2023-09-07T14:35:18;12.02;;;5.70;;
25525;SDS011;13424;48.424;11.258;2023-09-07T14:37:44;8.02;;;5.05;;
25525;SDS011;13424;48.424;11.258;2023-09-07T14:40:10;6.20;;;5.22;;
25525;SDS011;13424;48.424;11.258;2023-09-07T14:42:37;7.25;;;5.00;;
25525;SDS011;13424;48.424;11.258;2023-09-07T14:45:04;7.85;;;4.82;;
25525;SDS011;13424;48.424;11.258;2023-09-07T14:47:31;7.22;;;4.68;;
25525;SDS011;13424;48.424;11.258;2023-09-07T14:53:35;6.55;;;4.90;;
25525;SDS011;13424;48.424;11.258;2023-09-07T14:56:01;5.75;;;5.15;;
25525;SDS011;13424;48.424;11.258;2023-09-07T14:58:28;6.90;;;5.00;;
25525;SDS011;13424;48.424;11.258;2023-09-07T15:00:54;8.52;;;5.45;;
25525;SDS011;13424;48.424;11.258;2023-09-07T15:03:20;7.22;;;4.95;;
25525;SDS011;13424;48.424;11.258;2023-09-07T15:05:46;5.30;;;4.75;;
25525;SDS011;13424;48.424;11.258;2023-09-07T15:08:12;5.50;;;4.97;;